Time;durP1;ratioP1;P1;durP2;ratioP2;P2;SDS_P1;SDS_P2;PMS_P1;PMS_P2;Temp;Humidity;BMP_temperature;BMP_pressure;BME280_temperature;BME280_humidity;BME280_pressure;Samples;Min_cycle;Max_cycle;Signal;HPM_P1;HPM_P2
2022/06/19 00:00:44;;;;;;;14.67;2.70;;;11.10;99.90;;;;;;5033978;28;20178;-58
2022/06/19 00:03:24;;;;;;;14.67;2.33;;;11.00;99.90;;;;;;5033777;28;20652;-56
2022/06/19 00:05:49;;;;;;;14.63;2.37;;;11.00;99.90;;;;;;5033760;28;20544;-58
2022/06/19 00:08:15;;;;;;;16.30;2.73;;;11.00;99.90;;;;;;5033886;28;20180;-57
2022/06/19 00:10:41;;;;;;;18.43;2.87;;;11.10;99.90;;;;;;5033699;28;20703;-58
2022/06/19 00:13:07;;;;;;;25.50;3.13;;;;;;;;;;5033479;28;20214;-57
2022/06/19 00:15:33;;;;;;;15.47;2.60;;;11.10;99.90;;;;;;5033508;28;20178;-58
2022/06/19 00:18:00;;;;;;;13.10;2.50;;;11.10;99.90;;;;;;5033656;28;20166;-57
2022/06/19 00:20:25;;;;;;;14.60;3.03;;;11.00;99.90;;;;;;5015770;28;20169;-57
2022/06/19 00:22:51;;;;;;;14.83;2.47;;;11.00;99.90;;;;;;5033487;28;20387;-58
2022/06/19 00:25:20;;;;;;;9.17;2.47;;;11.00;99.90;;;;;;5033485;28;20252;-58
2022/06/19 00:27:46;;;;;;;14.40;2.77;;;10.80;99.90;;;;;;5033455;28;20174;-60
2022/06/19 00:30:13;;;;;;;12.17;2.73;;;10.90;99.90;;;;;;5033249;28;20192;-58
2022/06/19 00:32:38;;;;;;;12.30;2.57;;;10.80;99.90;;;;;;5033118;28;20216;-58
2022/06/19 00:35:05;;;;;;;14.53;2.37;;;10.80;99.90;;;;;;5033229;28;20169;-58
2022/06/19 00:37:31;;;;;;;17.63;2.80;;;10.80;99.90;;;;;;5033399;28;20178;-58
2022/06/19 00:39:57;;;;;;;23.50;3.00;;;10.80;99.90;;;;;;5033109;28;20177;-58
2022/06/19 00:42:24;;;;;;;19.20;2.60;;;10.90;99.90;;;;;;5033056;28;20252;-58
2022/06/19 00:44:51;;;;;;;10.90;2.83;;;10.90;99.90;;;;;;5032997;28;20165;-58
2022/06/19 00:47:35;;;;;;;15.40;2.50;;;11.00;99.90;;;;;;5033013;28;20170;-58
2022/06/19 00:50:23;;;;;;;16.23;2.73;;;11.00;99.90;;;;;;5032949;28;20602;-58
2022/06/19 00:52:50;;;;;;;17.50;2.77;;;11.00;99.90;;;;;;5032574;28;20237;-57
2022/06/19 00:55:19;;;;;;;10.73;1.90;;;10.90;99.90;;;;;;5032892;28;20633;-58
2022/06/19 00:57:50;;;;;;;16.10;2.87;;;10.70;99.90;;;;;;5032822;28;20648;-58
2022/06/19 01:00:16;;;;;;;14.60;2.53;;;10.80;99.90;;;;;;5033102;28;20182;-58
2022/06/19 01:02:43;;;;;;;13.80;2.80;;;12.50;99.90;;;;;;5032699;28;20178;-57
2022/06/19 01:05:12;;;;;;;14.13;2.57;;;10.80;99.90;;;;;;5032597;28;20653;-57
2022/06/19 01:07:40;;;;;;;12.70;2.33;;;10.80;99.90;;;;;;5032561;28;20177;-58
2022/06/19 01:10:07;;;;;;;14.30;2.90;;;10.80;99.90;;;;;;5032607;28;20633;-58
2022/06/19 01:12:33;;;;;;;10.60;2.37;;;10.80;99.90;;;;;;5032697;28;20236;-57
2022/06/19 01:15:06;;;;;;;14.60;1.90;;;10.80;99.90;;;;;;5032658;28;20630;-57
2022/06/19 01:17:33;;;;;;;15.90;2.57;;;10.70;99.90;;;;;;5032334;28;20181;-57
2022/06/19 01:20:08;;;;;;;10.20;2.00;;;10.70;99.90;;;;;;5032462;28;20173;-57
2022/06/19 01:23:03;;;;;;;13.10;2.20;;;10.70;99.90;;;;;;5032576;28;20177;-57
2022/06/19 01:25:32;;;;;;;17.30;2.70;;;10.70;99.90;;;;;;5032322;28;20178;-58
2022/06/19 01:30:51;;;;;;;18.73;2.60;;;10.60;99.90;;;;;;5032477;28;20181;-57
2022/06/19 01:33:26;;;;;;;12.33;2.50;;;10.60;99.90;;;;;;5032023;28;20676;-58
2022/06/19 01:35:53;;;;;;;12.37;2.10;;;10.50;99.90;;;;;;5032010;28;20161;-58
2022/06/19 01:38:22;;;;;;;17.43;2.53;;;10.50;99.90;;;;;;5031497;28;20185;-58
2022/06/19 01:41:00;;;;;;;13.00;2.30;;;10.40;99.90;;;;;;5031918;28;20178;-58
2022/06/19 01:43:27;;;;;;;17.13;2.30;;;10.30;99.90;;;;;;5032037;28;20181;-58
2022/06/19 01:45:53;;;;;;;22.73;2.67;;;10.30;99.90;;;;;;5032090;28;20177;-58
2022/06/19 01:48:21;;;;;;;14.63;2.50;;;10.40;99.90;;;;;;5031843;28;20175;-58
2022/06/19 01:50:48;;;;;;;14.97;2.20;;;10.30;99.90;;;;;;5031863;28;20197;-58
2022/06/19 01:53:21;;;;;;;14.60;2.77;;;10.10;99.90;;;;;;5034453;28;20316;-58
2022/06/19 01:55:47;;;;;;;17.63;2.73;;;10.30;99.90;;;;;;5049491;28;20175;-58
2022/06/19 01:58:14;;;;;;;14.77;2.50;;;10.20;99.90;;;;;;5046981;28;20180;-57
2022/06/19 02:00:43;;;;;;;15.30;2.37;;;10.20;99.90;;;;;;5030352;28;20176;-58
2022/06/19 02:03:30;;;;;;;17.57;2.37;;;10.30;99.90;;;;;;5031618;28;20180;-58
2022/06/19 02:05:57;;;;;;;12.60;2.87;;;10.30;99.90;;;;;;5031561;28;20445;-58
2022/06/19 02:08:24;;;;;;;16.37;2.87;;;10.10;99.90;;;;;;5031779;28;20217;-58
2022/06/19 02:10:51;;;;;;;14.93;2.50;;;10.10;99.90;;;;;;5039492;28;20261;-58
2022/06/19 02:13:19;;;;;;;11.17;2.20;;;10.10;99.90;;;;;;5051407;28;20216;-58
2022/06/19 02:15:46;;;;;;;14.60;2.30;;;10.10;99.90;;;;;;5051350;28;20165;-58
2022/06/19 02:18:18;;;;;;;17.73;2.63;;;10.00;99.90;;;;;;5051222;28;20184;-58
2022/06/19 02:20:44;;;;;;;16.27;3.20;;;10.00;99.90;;;;;;5051296;28;20169;-58
2022/06/19 02:23:11;;;;;;;12.60;2.37;;;10.10;99.90;;;;;;5051167;28;20675;-58
2022/06/19 02:25:40;;;;;;;15.13;2.70;;;10.00;99.90;;;;;;5051036;28;20211;-58
2022/06/19 02:28:09;;;;;;;20.87;3.13;;;10.10;99.90;;;;;;5051171;28;20165;-58
2022/06/19 02:30:35;;;;;;;14.63;2.30;;;10.10;99.90;;;;;;5051015;28;20204;-58
2022/06/19 02:33:01;;;;;;;14.60;2.43;;;;;;;;;;5050927;28;20213;-58
2022/06/19 02:35:27;;;;;;;14.67;2.57;;;10.20;99.90;;;;;;5051010;28;20166;-58
2022/06/19 02:37:55;;;;;;;10.70;2.23;;;10.10;99.90;;;;;;5050928;28;20177;-58
2022/06/19 02:40:27;;;;;;;18.97;2.53;;;10.10;99.90;;;;;;5050950;28;20181;-59
2022/06/19 02:42:53;;;;;;;14.07;2.40;;;10.20;99.90;;;;;;5050930;28;20176;-59
2022/06/19 02:45:22;;;;;;;14.27;2.57;;;10.20;99.90;;;;;;5050893;28;20505;-59
2022/06/19 02:47:50;;;;;;;15.67;2.50;;;10.10;99.90;;;;;;5038522;28;20174;-58
2022/06/19 02:50:22;;;;;;;11.77;2.40;;;10.20;99.90;;;;;;5030358;28;20177;-58
2022/06/19 02:52:48;;;;;;;15.07;2.20;;;;;;;;;;5030391;28;20232;-58
2022/06/19 02:55:14;;;;;;;17.03;2.43;;;10.20;99.90;;;;;;5030616;28;20220;-59
2022/06/19 02:57:40;;;;;;;14.53;2.47;;;10.20;99.90;;;;;;5029294;28;20587;-59
2022/06/19 03:00:12;;;;;;;15.23;2.70;;;9.90;99.90;;;;;;5030486;28;20197;-58
2022/06/19 03:02:38;;;;;;;13.77;2.40;;;10.20;99.90;;;;;;5030961;28;20181;-58
2022/06/19 03:05:05;;;;;;;9.90;2.27;;;10.10;99.90;;;;;;5030539;28;20536;-58
2022/06/19 03:07:31;;;;;;;12.83;2.17;;;10.10;99.90;;;;;;5030399;28;20182;-58
2022/06/19 03:09:57;;;;;;;18.70;3.10;;;10.10;99.90;;;;;;5030662;28;20178;-58
2022/06/19 03:12:23;;;;;;;19.37;2.60;;;10.00;99.90;;;;;;5030469;28;20210;-58
2022/06/19 03:14:50;;;;;;;12.13;2.33;;;;;;;;;;5029230;28;20637;-58
2022/06/19 03:17:18;;;;;;;14.63;2.43;;;10.00;99.90;;;;;;5030571;28;20177;-58
2022/06/19 03:19:44;;;;;;;14.10;1.93;;;10.00;99.90;;;;;;5030688;28;20181;-59
2022/06/19 03:22:11;;;;;;;12.63;2.13;;;10.00;99.90;;;;;;5030492;28;20553;-58
2022/06/19 03:24:37;;;;;;;16.43;2.53;;;9.90;99.90;;;;;;5030323;28;20177;-58
2022/06/19 03:27:04;;;;;;;12.93;2.23;;;9.90;99.90;;;;;;5030413;28;20174;-58
2022/06/19 03:29:29;;;;;;;15.50;2.10;;;10.00;99.90;;;;;;5030330;28;20177;-58
2022/06/19 03:31:55;;;;;;;10.63;2.27;;;10.00;99.90;;;;;;5030393;28;20217;-58
2022/06/19 03:34:21;;;;;;;14.27;2.00;;;10.00;99.90;;;;;;5030323;28;20170;-58
2022/06/19 03:36:46;;;;;;;15.37;2.30;;;10.00;99.90;;;;;;5030329;28;20633;-59
2022/06/19 03:39:12;;;;;;;11.10;2.10;;;10.00;99.90;;;;;;5030409;28;20609;-59
2022/06/19 03:41:38;;;;;;;11.60;2.70;;;9.90;99.90;;;;;;5030392;28;20224;-58
2022/06/19 03:44:05;;;;;;;10.43;2.50;;;9.90;99.90;;;;;;5030438;28;20225;-58
2022/06/19 03:46:31;;;;;;;14.57;1.90;;;9.90;99.90;;;;;;5031443;28;20629;-59
2022/06/19 03:48:58;;;;;;;15.50;2.30;;;10.70;99.90;;;;;;5050301;28;20260;-58
2022/06/19 03:51:23;;;;;;;13.87;2.80;;;9.90;99.90;;;;;;5050109;28;20231;-58
2022/06/19 03:53:51;;;;;;;14.27;2.53;;;9.80;99.90;;;;;;5050151;28;20658;-58
2022/06/19 03:56:22;;;;;;;15.13;2.40;;;9.90;99.90;;;;;;5050039;28;20248;-58
2022/06/19 03:58:48;;;;;;;9.60;2.23;;;10.00;99.90;;;;;;5050131;28;20181;-58
2022/06/19 04:01:25;;;;;;;11.73;3.30;;;10.00;99.90;;;;;;5052945;28;20177;-58
2022/06/19 04:03:53;;;;;;;8.23;2.30;;;10.00;99.90;;;;;;5053781;28;20646;-59
2022/06/19 04:06:21;;;;;;;12.03;2.00;;;10.00;99.90;;;;;;5053683;28;20174;-59
2022/06/19 04:08:47;;;;;;;9.17;2.20;;;10.10;99.90;;;;;;5053691;28;20265;-58
2022/06/19 04:11:14;;;;;;;17.60;2.07;;;10.10;99.90;;;;;;5053571;28;20197;-59
2022/06/19 04:13:40;;;;;;;11.33;1.90;;;10.10;99.90;;;;;;5053464;28;20226;-59
2022/06/19 04:16:07;;;;;;;13.60;2.20;;;10.20;99.90;;;;;;5053512;28;20215;-58
2022/06/19 04:18:34;;;;;;;13.67;2.33;;;9.90;99.90;;;;;;5053452;28;20223;-58
2022/06/19 04:21:01;;;;;;;8.87;2.23;;;10.10;99.90;;;;;;5053568;28;20656;-58
2022/06/19 04:23:27;;;;;;;8.23;2.23;;;10.10;99.90;;;;;;5053396;28;20177;-58
2022/06/19 04:25:54;;;;;;;12.67;2.43;;;10.10;99.90;;;;;;5053499;28;20180;-59
2022/06/19 04:28:23;;;;;;;14.83;2.40;;;10.10;99.90;;;;;;5053341;28;20651;-65
2022/06/19 04:30:52;;;;;;;9.17;2.30;;;9.90;99.90;;;;;;5053280;28;20180;-58
2022/06/19 04:33:20;;;;;;;9.27;2.00;;;10.00;99.90;;;;;;5053177;28;20205;-58
2022/06/19 04:35:47;;;;;;;9.63;2.17;;;10.00;99.90;;;;;;5053401;28;20615;-59
2022/06/19 04:38:13;;;;;;;11.57;2.20;;;10.00;99.90;;;;;;5053139;28;20177;-59
2022/06/19 04:40:39;;;;;;;8.10;2.00;;;10.00;99.90;;;;;;5053040;28;20200;-60
2022/06/19 04:43:05;;;;;;;19.70;2.80;;;10.00;99.90;;;;;;5053138;28;20166;-57
2022/06/19 04:45:32;;;;;;;15.27;2.90;;;10.10;99.90;;;;;;5035218;28;20169;-59
2022/06/19 04:47:58;;;;;;;12.80;2.37;;;10.40;99.90;;;;;;5039658;28;20178;-58
2022/06/19 04:50:24;;;;;;;14.10;2.03;;;10.30;99.90;;;;;;5032861;28;20693;-58
2022/06/19 04:52:50;;;;;;;8.73;2.37;;;10.30;99.90;;;;;;5032643;28;20854;-58
2022/06/19 04:55:17;;;;;;;9.83;2.13;;;10.40;99.90;;;;;;5032894;28;20174;-57
2022/06/19 04:57:43;;;;;;;9.10;2.00;;;10.40;99.90;;;;;;5032896;28;20170;-58
2022/06/19 05:00:13;;;;;;;14.97;2.30;;;10.50;99.90;;;;;;5032740;28;20253;-58
2022/06/19 05:02:40;;;;;;;9.77;2.30;;;10.50;99.90;;;;;;5032854;28;20189;-58
2022/06/19 05:05:07;;;;;;;9.23;2.43;;;10.50;99.90;;;;;;5032665;28;20236;-57
2022/06/19 05:07:33;;;;;;;10.33;2.23;;;10.50;99.90;;;;;;5032645;28;20170;-58
2022/06/19 05:10:00;;;;;;;11.60;2.47;;;10.50;99.90;;;;;;5032571;28;20185;-58
2022/06/19 05:12:26;;;;;;;17.87;2.30;;;10.50;99.90;;;;;;5031499;28;20221;-58
2022/06/19 05:14:53;;;;;;;17.23;2.90;;;10.50;99.90;;;;;;5032435;28;20170;-58
2022/06/19 05:17:19;;;;;;;19.53;2.33;;;10.60;99.90;;;;;;5032334;28;20181;-58
2022/06/19 05:19:45;;;;;;;13.80;2.10;;;10.60;99.90;;;;;;5032350;28;20178;-56
2022/06/19 05:22:11;;;;;;;12.37;2.00;;;10.60;99.90;;;;;;5032381;28;20523;-59
2022/06/19 05:24:37;;;;;;;13.70;2.83;;;10.60;99.90;;;;;;5032388;28;20181;-57
2022/06/19 05:27:10;;;;;;;10.37;2.20;;;10.80;99.90;;;;;;5014436;28;20604;-57
2022/06/19 05:29:37;;;;;;;10.90;2.00;;;10.80;99.90;;;;;;5032280;28;20181;-57
2022/06/19 05:32:06;;;;;;;8.63;1.93;;;10.80;99.90;;;;;;5031994;28;20231;-57
2022/06/19 05:34:36;;;;;;;15.27;2.43;;;11.00;99.90;;;;;;5031981;28;20173;-57
2022/06/19 05:37:03;;;;;;;9.57;1.73;;;10.90;99.90;;;;;;5032064;28;20169;-57
2022/06/19 05:39:29;;;;;;;14.33;2.77;;;10.90;99.90;;;;;;5032003;28;20170;-57
2022/06/19 05:41:58;;;;;;;7.17;2.03;;;11.00;99.90;;;;;;5031813;28;20182;-57
2022/06/19 05:44:25;;;;;;;15.00;2.47;;;11.10;99.90;;;;;;5031810;28;20656;-58
2022/06/19 05:46:51;;;;;;;16.67;2.00;;;11.10;99.90;;;;;;5035416;28;20188;-57
2022/06/19 05:49:17;;;;;;;8.60;2.50;;;11.20;99.90;;;;;;5052029;28;20170;-58
2022/06/19 05:51:43;;;;;;;10.33;1.83;;;11.30;99.90;;;;;;5051424;28;20561;-58
2022/06/19 05:54:10;;;;;;;8.10;2.20;;;11.40;99.90;;;;;;5051709;28;20173;-57
2022/06/19 05:56:35;;;;;;;11.20;1.80;;;11.40;99.90;;;;;;5051640;28;20169;-57
2022/06/19 05:59:01;;;;;;;14.20;2.30;;;11.50;99.90;;;;;;5051620;28;20282;-58
2022/06/19 06:01:28;;;;;;;12.30;1.90;;;11.50;99.90;;;;;;5051502;28;20640;-58
2022/06/19 06:03:55;;;;;;;13.20;1.67;;;11.60;99.90;;;;;;5051509;28;20172;-58
2022/06/19 06:06:23;;;;;;;12.90;2.03;;;11.80;99.90;;;;;;5051381;28;20181;-57
2022/06/19 06:08:49;;;;;;;11.63;1.73;;;11.70;99.90;;;;;;5051521;28;20211;-57
2022/06/19 06:11:15;;;;;;;11.90;2.23;;;11.70;99.90;;;;;;5051575;28;20177;-58
2022/06/19 06:13:41;;;;;;;12.70;1.60;;;11.70;99.90;;;;;;5051413;28;20255;-58
2022/06/19 06:16:12;;;;;;;10.97;1.80;;;11.80;99.90;;;;;;5051174;28;20710;-57
2022/06/19 06:18:38;;;;;;;10.43;1.63;;;12.00;99.90;;;;;;5033483;28;20256;-57
2022/06/19 06:21:06;;;;;;;12.60;2.60;;;12.00;99.90;;;;;;5051316;28;20596;-57
2022/06/19 06:23:32;;;;;;;12.07;2.20;;;12.10;99.90;;;;;;5051088;28;20180;-57
2022/06/19 06:26:08;;;;;;;11.13;1.80;;;12.20;99.90;;;;;;5051174;28;20178;-58
2022/06/19 06:28:35;;;;;;;17.07;2.67;;;12.30;99.90;;;;;;5050980;28;20670;-57
2022/06/19 06:31:02;;;;;;;12.65;1.90;;;12.40;99.90;;;;;;5050917;28;20525;-57
2022/06/19 06:33:28;;;;;;;13.50;1.83;;;12.60;99.90;;;;;;5050874;28;20211;-58
2022/06/19 06:35:54;;;;;;;13.77;2.60;;;12.50;99.90;;;;;;5050973;28;20176;-58
2022/06/19 06:38:20;;;;;;;13.00;1.50;;;12.50;99.90;;;;;;5050860;28;20205;-57
2022/06/19 06:40:46;;;;;;;10.32;2.40;;;12.60;99.90;;;;;;5050788;28;20238;-57
2022/06/19 06:43:12;;;;;;;11.50;1.70;;;12.50;99.90;;;;;;5050793;28;20180;-57
2022/06/19 06:45:37;;;;;;;11.02;1.95;;;12.40;99.90;;;;;;5050843;28;20652;-57
2022/06/19 06:48:03;;;;;;;8.93;1.73;;;12.60;99.90;;;;;;5036808;28;20178;-57
2022/06/19 06:50:29;;;;;;;11.27;1.70;;;13.40;99.90;;;;;;5030892;28;20181;-57
2022/06/19 06:52:55;;;;;;;12.73;2.00;;;12.70;99.90;;;;;;5030567;28;20744;-58
2022/06/19 06:55:21;;;;;;;7.95;1.73;;;12.70;99.90;;;;;;5030710;28;20172;-57
2022/06/19 06:57:46;;;;;;;13.43;2.00;;;12.60;99.90;;;;;;5030691;28;20228;-58
2022/06/19 07:00:19;;;;;;;9.18;1.75;;;12.70;99.90;;;;;;5030636;28;20575;-58
2022/06/19 07:02:45;;;;;;;10.98;2.38;;;12.80;99.90;;;;;;5030738;28;20197;-58
2022/06/19 07:05:11;;;;;;;9.67;1.63;;;12.90;99.90;;;;;;5030697;28;20244;-59
2022/06/19 07:07:37;;;;;;;10.20;1.97;;;12.90;99.90;;;;;;5030641;28;20178;-58
2022/06/19 07:10:03;;;;;;;11.98;1.75;;;13.00;99.90;;;;;;5030656;28;20192;-58
2022/06/19 07:12:29;;;;;;;13.27;2.30;;;13.00;99.90;;;;;;5030401;28;20217;-56
2022/06/19 07:14:54;;;;;;;10.73;1.63;;;13.10;99.90;;;;;;5030599;28;20166;-56
2022/06/19 07:17:20;;;;;;;10.18;1.40;;;13.00;99.90;;;;;;5030533;28;20170;-57
2022/06/19 07:19:46;;;;;;;12.52;2.05;;;13.10;99.90;;;;;;5030555;28;20174;-57
2022/06/19 07:22:14;;;;;;;10.55;1.92;;;13.30;99.90;;;;;;5030455;28;20188;-57
2022/06/19 07:24:40;;;;;;;11.97;1.87;;;13.50;99.90;;;;;;5030473;28;20174;-57
2022/06/19 07:27:06;;;;;;;6.72;2.03;;;13.40;99.90;;;;;;5030373;28;20174;-57
2022/06/19 07:29:32;;;;;;;18.73;2.25;;;13.50;99.90;;;;;;5030353;28;20227;-57
2022/06/19 07:31:58;;;;;;;10.77;1.70;;;13.50;99.90;;;;;;5030269;28;20248;-57
2022/06/19 07:34:24;;;;;;;14.40;3.03;;;;;;;;;;5030371;28;20177;-57
2022/06/19 07:36:50;;;;;;;14.15;2.05;;;13.50;99.90;;;;;;5034293;28;20499;-57
2022/06/19 07:39:16;;;;;;;10.10;1.90;;;13.60;99.90;;;;;;5034163;28;20170;-57
2022/06/19 07:41:41;;;;;;;9.27;1.73;;;13.60;99.90;;;;;;5034378;28;20178;-57
2022/06/19 07:44:07;;;;;;;13.15;2.22;;;13.70;99.90;;;;;;5034215;28;20536;-57
2022/06/19 07:46:33;;;;;;;9.32;2.67;;;13.70;99.90;;;;;;5035309;28;20216;-57
2022/06/19 07:51:42;;;;;;;11.18;2.00;;;13.70;99.90;;;;;;5053953;28;20247;-57
2022/06/19 07:54:08;;;;;;;10.02;2.00;;;13.80;99.90;;;;;;5053977;28;20566;-57
2022/06/19 07:56:34;;;;;;;10.13;1.88;;;14.00;99.90;;;;;;5053838;28;20165;-57
2022/06/19 07:59:02;;;;;;;10.75;1.85;;;14.20;99.90;;;;;;5053856;28;20200;-57
2022/06/19 08:01:28;;;;;;;11.45;2.00;;;14.30;99.90;;;;;;5053725;28;20214;-57
2022/06/19 08:03:54;;;;;;;12.35;1.70;;;14.50;99.90;;;;;;5053782;28;20257;-57
2022/06/19 08:06:20;;;;;;;7.88;1.80;;;14.70;99.90;;;;;;5053613;28;20272;-57
2022/06/19 08:08:46;;;;;;;4.78;1.50;;;15.00;99.90;;;;;;5053798;28;20173;-57
2022/06/19 08:11:12;;;;;;;9.80;1.70;;;15.10;99.90;;;;;;5053482;28;20180;-57
2022/06/19 08:13:39;;;;;;;8.63;1.58;;;15.20;99.90;;;;;;5053425;28;20208;-57
2022/06/19 08:16:08;;;;;;;14.02;1.70;;;14.90;99.90;;;;;;5053421;28;20178;-56
2022/06/19 08:18:35;;;;;;;10.68;2.08;;;14.90;99.90;;;;;;5053535;28;20177;-57
2022/06/19 08:21:01;;;;;;;11.05;2.15;;;15.00;99.90;;;;;;5053359;28;20182;-57
2022/06/19 08:23:27;;;;;;;8.13;1.75;;;15.10;99.90;;;;;;5053370;28;20192;-57
2022/06/19 08:25:53;;;;;;;8.95;1.67;;;15.40;99.90;;;;;;5053334;28;20628;-57
2022/06/19 08:30:55;;;;;;;7.05;1.50;;;15.60;99.90;;;;;;5053365;28;20165;-58
2022/06/19 08:33:21;;;;;;;12.32;1.88;;;15.70;99.90;;;;;;5053529;28;20614;-57
2022/06/19 08:35:51;;;;;;;12.60;1.50;;;15.90;99.90;;;;;;5035231;28;20176;-57
2022/06/19 08:38:23;;;;;;;10.10;1.85;;;15.90;99.90;;;;;;5053180;28;20173;-57
2022/06/19 08:40:57;;;;;;;14.20;2.25;;;15.90;99.90;;;;;;5053162;28;20168;-57
2022/06/19 08:43:37;;;;;;;10.93;1.42;;;15.80;99.90;;;;;;5053131;28;20165;-57
2022/06/19 08:46:17;;;;;;;10.35;2.05;;;15.90;99.90;;;;;;5051892;28;20176;-57
2022/06/19 08:48:51;;;;;;;8.48;1.83;;;15.80;99.90;;;;;;5033416;28;20186;-57
2022/06/19 08:51:59;;;;;;;11.15;1.70;;;15.70;99.90;;;;;;5032996;28;20589;-57
2022/06/19 08:54:45;;;;;;;12.95;2.38;;;15.70;99.90;;;;;;5027156;28;20193;-57
2022/06/19 08:57:11;;;;;;;9.13;1.83;;;16.00;99.90;;;;;;5032798;28;20181;-57
2022/06/19 09:00:00;;;;;;;12.25;2.22;;;16.30;99.90;;;;;;5032937;28;20218;-57
2022/06/19 09:02:58;;;;;;;8.70;1.42;;;16.40;99.90;;;;;;5032754;28;20198;-57
2022/06/19 09:06:07;;;;;;;12.18;1.80;;;16.70;99.90;;;;;;5032793;28;20174;-57
2022/06/19 09:08:47;;;;;;;8.55;1.80;;;17.30;99.90;;;;;;5032619;28;20197;-57
2022/06/19 09:12:07;;;;;;;6.90;1.80;;;18.00;99.90;;;;;;5032535;28;20236;-58
2022/06/19 09:14:42;;;;;;;9.80;1.80;;;18.70;99.90;;;;;;4990830;28;20187;-58
2022/06/19 09:17:31;;;;;;;10.52;1.45;;;19.00;99.90;;;;;;4990735;28;20178;-58
2022/06/19 09:20:15;;;;;;;8.07;1.55;;;18.90;99.90;;;;;;5019567;28;20273;-58
2022/06/19 09:23:01;;;;;;;10.85;1.60;;;18.60;99.90;;;;;;5032413;28;20173;-57
2022/06/19 09:25:45;;;;;;;10.05;1.60;;;18.20;99.90;;;;;;5032294;28;20216;-57
2022/06/19 09:28:13;;;;;;;11.13;1.88;;;17.80;99.90;;;;;;5032355;28;20249;-57
2022/06/19 09:30:47;;;;;;;9.30;1.73;;;17.40;99.90;;;;;;5030813;28;20166;-57
2022/06/19 09:33:45;;;;;;;9.05;1.52;;;16.80;99.90;;;;;;5031876;28;20212;-57
2022/06/19 09:36:29;;;;;;;6.03;1.67;;;16.60;99.90;;;;;;5031632;28;20190;-58
2022/06/19 09:39:26;;;;;;;9.40;1.27;;;16.70;99.90;;;;;;5032099;28;20169;-57
2022/06/19 09:42:09;;;;;;;6.38;1.20;;;16.70;99.90;;;;;;5032072;28;20624;-58
2022/06/19 09:44:40;;;;;;;6.93;1.30;;;16.50;99.90;;;;;;5032219;28;20181;-57
2022/06/19 09:47:12;;;;;;;7.75;1.50;;;16.50;99.90;;;;;;5037814;28;20173;-58
2022/06/19 09:50:00;;;;;;;6.22;1.02;;;16.50;99.90;;;;;;5051912;28;20173;-57
2022/06/19 09:52:34;;;;;;;8.93;1.50;;;16.60;99.90;;;;;;5051476;28;20239;-58
2022/06/19 09:55:38;;;;;;;6.85;1.08;;;16.60;99.90;;;;;;5051808;28;20177;-57
2022/06/19 09:58:17;;;;;;;7.68;1.15;;;17.00;99.90;;;;;;5019991;28;20177;-58
2022/06/19 10:00:46;;;;;;;7.07;1.67;;;17.10;99.90;;;;;;5051561;28;20639;-58
2022/06/19 10:03:41;;;;;;;3.97;1.27;;;17.40;99.90;;;;;;5051530;28;20198;-58
2022/06/19 10:06:18;;;;;;;5.30;1.10;;;17.80;99.90;;;;;;5051355;28;20172;-58
2022/06/19 10:08:53;;;;;;;4.85;1.40;;;18.00;99.90;;;;;;5051467;28;20204;-56
2022/06/19 10:11:27;;;;;;;6.88;1.20;;;18.30;99.90;;;;;;5051304;28;20165;-57
2022/06/19 10:14:12;;;;;;;6.50;1.20;;;17.90;99.90;;;;;;5051247;28;20227;-57
2022/06/19 10:16:55;;;;;;;4.30;1.10;;;17.90;99.90;;;;;;5051332;28;20299;-57
2022/06/19 10:19:39;;;;;;;8.93;1.50;;;17.90;99.90;;;;;;5051012;28;20640;-56
2022/06/19 10:22:37;;;;;;;6.57;1.10;;;17.90;99.90;;;;;;5051182;28;20227;-57
2022/06/19 10:25:11;;;;;;;6.18;1.33;;;17.90;99.90;;;;;;5051179;28;20548;-57
2022/06/19 10:28:05;;;;;;;6.70;1.17;;;17.90;99.90;;;;;;5050895;28;20172;-57
2022/06/19 10:31:04;;;;;;;34.25;1.50;;;18.30;99.90;;;;;;5051055;28;20173;-57
2022/06/19 10:33:51;;;;;;;6.88;1.27;;;18.80;99.90;;;;;;5050771;28;20205;-57
2022/06/19 10:36:35;;;;;;;4.57;1.25;;;18.80;99.90;;;;;;5049790;28;20514;-57
2022/06/19 10:39:15;;;;;;;3.95;1.13;;;18.50;99.90;;;;;;5051019;28;20185;-56
2022/06/19 10:42:12;;;;;;;5.15;1.25;;;18.00;99.90;;;;;;5050941;28;20675;-57
2022/06/19 10:45:00;;;;;;;5.45;1.20;;;18.30;99.90;;;;;;5050984;28;20172;-57
2022/06/19 10:47:29;;;;;;;6.88;1.15;;;18.30;99.90;;;;;;5050950;28;20216;-57
2022/06/19 10:50:14;;;;;;;4.55;1.20;;;18.60;99.90;;;;;;5051264;28;20169;-57
2022/06/19 10:53:04;;;;;;;4.78;1.10;;;18.80;99.90;;;;;;5050706;28;20772;-57
2022/06/19 10:55:39;;;;;;;5.82;1.30;;;19.60;99.90;;;;;;5050997;28;20307;-57
2022/06/19 10:58:19;;;;;;;4.32;0.82;;;19.80;99.90;;;;;;5051041;28;20168;-57
2022/06/19 11:00:50;;;;;;;5.78;1.10;;;20.30;99.90;;;;;;5050909;28;20169;-57
2022/06/19 11:06:47;;;;;;;6.80;1.17;;;19.70;99.90;;;;;;5050851;28;20188;-57
2022/06/19 11:09:20;;;;;;;3.15;1.20;;;19.40;99.90;;;;;;5050043;28;20204;-57
2022/06/19 11:11:48;;;;;;;4.13;1.15;;;19.30;99.90;;;;;;5051226;28;20187;-57
2022/06/19 11:14:28;;;;;;;4.20;1.17;;;19.20;99.90;;;;;;5050900;28;20631;-57
2022/06/19 11:17:00;;;;;;;4.15;0.93;;;19.00;99.90;;;;;;5050858;28;20196;-57
2022/06/19 11:19:40;;;;;;;7.25;1.10;;;18.60;99.90;;;;;;5050838;28;20177;-57
2022/06/19 11:22:26;;;;;;;4.72;1.00;;;18.90;99.90;;;;;;5050610;28;20181;-57
2022/06/19 11:24:55;;;;;;;6.40;1.38;;;19.00;99.90;;;;;;5051089;28;20177;-57
2022/06/19 11:27:24;;;;;;;5.88;1.08;;;19.40;99.90;;;;;;5050817;28;20200;-58
2022/06/19 11:29:53;;;;;;;4.82;1.35;;;19.70;99.90;;;;;;5050594;28;20639;-57
2022/06/19 11:32:21;;;;;;;6.18;1.20;;;19.90;99.90;;;;;;5050879;28;20262;-57
2022/06/19 11:34:56;;;;;;;3.85;1.00;;;20.00;99.90;;;;;;5050575;28;20177;-57
2022/06/19 11:37:37;;;;;;;5.80;1.48;;;20.00;99.90;;;;;;5049330;28;20161;-57
2022/06/19 11:40:05;;;;;;;7.20;1.35;;;19.80;99.90;;;;;;5050636;28;20529;-57
2022/06/19 11:42:38;;;;;;;4.32;1.20;;;19.70;99.90;;;;;;5050325;28;20169;-57
2022/06/19 11:45:19;;;;;;;3.88;1.23;;;19.80;99.90;;;;;;5050508;28;20170;-57
2022/06/19 11:48:00;;;;;;;4.88;1.30;;;19.90;99.90;;;;;;5050360;28;20173;-56
2022/06/19 11:50:35;;;;;;;4.78;1.20;;;20.00;99.90;;;;;;5050361;28;20831;-57
2022/06/19 11:53:00;;;;;;;8.88;1.52;;;20.00;99.90;;;;;;5050215;28;20236;-57
2022/06/19 11:55:31;;;;;;;4.28;1.17;;;20.40;99.90;;;;;;5050337;28;20678;-58
2022/06/19 11:58:19;;;;;;;6.13;1.55;;;21.00;99.90;;;;;;5050394;28;20189;-57
2022/06/19 12:00:58;;;;;;;3.30;1.20;;;21.30;99.90;;;;;;5040476;28;20181;-57
2022/06/19 12:03:47;;;;;;;5.68;1.38;;;21.60;99.90;;;;;;5050256;28;20173;-57
2022/06/19 12:06:15;;;;;;;2.90;1.30;;;21.70;99.90;;;;;;5050367;28;20268;-57
2022/06/19 12:08:56;;;;;;;6.15;1.00;;;21.80;99.90;;;;;;5050298;28;20204;-57
2022/06/19 12:11:40;;;;;;;4.68;1.20;;;22.00;99.90;;;;;;5050206;28;20644;-57
2022/06/19 12:14:07;;;;;;;7.22;1.38;;;21.80;99.90;;;;;;5050157;28;20209;-58
2022/06/19 12:16:33;;;;;;;4.72;1.30;;;21.50;99.90;;;;;;5050178;28;20176;-56
2022/06/19 12:19:22;;;;;;;3.92;1.00;;;21.30;99.90;;;;;;5050459;28;20238;-57
2022/06/19 12:21:55;;;;;;;4.75;1.27;;;21.30;99.90;;;;;;5052340;28;20231;-58
2022/06/19 12:24:27;;;;;;;4.70;1.00;;;21.40;99.90;;;;;;5053618;28;20257;-57
2022/06/19 12:26:57;;;;;;;6.95;1.25;;;21.40;99.90;;;;;;5053492;28;20166;-57
2022/06/19 12:29:28;;;;;;;4.70;1.40;;;21.90;99.90;;;;;;5053702;28;20698;-57
2022/06/19 12:32:00;;;;;;;9.70;1.67;;;22.10;99.90;;;;;;5053459;28;20181;-57
2022/06/19 12:34:32;;;;;;;4.30;1.15;;;22.10;99.90;;;;;;5047701;28;20193;-57
2022/06/19 12:36:59;;;;;;;3.97;1.30;;;22.20;99.90;;;;;;5046379;28;20169;-57
2022/06/19 12:39:30;;;;;;;5.75;1.50;;;21.80;99.90;;;;;;5053321;28;20181;-57
2022/06/19 12:42:37;;;;;;;5.63;1.10;;;21.90;99.90;;;;;;5033604;28;20192;-57
2022/06/19 12:45:10;;;;;;;3.97;1.27;;;22.10;99.90;;;;;;5033300;28;20260;-56
2022/06/19 12:47:57;;;;;;;4.82;1.50;;;21.70;99.90;;;;;;5033216;28;20189;-57
2022/06/19 12:50:45;;;;;;;7.35;1.77;;;21.70;99.90;;;;;;5033536;28;20235;-57
2022/06/19 12:53:46;;;;;;;4.85;1.25;;;20.90;99.90;;;;;;5045735;28;20283;-57
2022/06/19 12:56:36;;;;;;;5.38;1.30;;;20.50;99.90;;;;;;5053416;28;20173;-57
2022/06/19 12:59:12;;;;;;;3.85;1.20;;;20.30;99.90;;;;;;5052891;28;20201;-57
2022/06/19 13:01:53;;;;;;;5.93;1.40;;;20.00;99.90;;;;;;5052749;28;20280;-57
2022/06/19 13:04:39;;;;;;;4.50;1.42;;;19.70;99.90;;;;;;5052668;28;20689;-57
2022/06/19 13:07:25;;;;;;;4.70;1.27;;;19.20;99.90;;;;;;5052952;28;20189;-57
2022/06/19 13:10:06;;;;;;;4.55;1.40;;;19.10;99.90;;;;;;5052825;28;20655;-57
2022/06/19 13:12:59;;;;;;;5.38;1.38;;;19.10;99.90;;;;;;5052554;28;20208;-57
2022/06/19 13:15:42;;;;;;;3.47;1.17;;;18.80;99.90;;;;;;5052893;28;20249;-57
2022/06/19 13:18:14;;;;;;;6.13;1.35;;;19.10;99.90;;;;;;5052672;28;20181;-57